sensor_id;sensor_type;location;lat;lon;timestamp;temperature;humidity
8463;DHT22;4268;52.506;13.462;2022-12-18T00:02:00;-4.20;99.90
8463;DHT22;4268;52.506;13.462;2022-12-18T00:04:26;-4.20;99.90
8463;DHT22;4268;52.506;13.462;2022-12-18T00:06:52;-4.20;99.90
8463;DHT22;4268;52.506;13.462;2022-12-18T00:09:17;-4.30;99.90
8463;DHT22;4268;52.506;13.462;2022-12-18T00:11:43;-4.30;99.90
8463;DHT22;4268;52.506;13.462;2022-12-18T00:14:10;-4.30;99.90
8463;DHT22;4268;52.506;13.462;2022-12-18T00:16:36;-4.30;99.90
8463;DHT22;4268;52.506;13.462;2022-12-18T00:19:03;-4.30;99.90
8463;DHT22;4268;52.506;13.462;2022-12-18T00:21:30;-4.30;99.90
8463;DHT22;4268;52.506;13.462;2022-12-18T00:23:56;-4.30;99.90
8463;DHT22;4268;52.506;13.462;2022-12-18T00:26:24;-4.40;99.90
8463;DHT22;4268;52.506;13.462;2022-12-18T00:28:51;-4.40;99.90
8463;DHT22;4268;52.506;13.462;2022-12-18T00:31:22;-4.40;99.90
8463;DHT22;4268;52.506;13.462;2022-12-18T00:33:49;-4.40;99.90
8463;DHT22;4268;52.506;13.462;2022-12-18T00:36:17;-4.40;99.90
8463;DHT22;4268;52.506;13.462;2022-12-18T00:38:43;-4.40;99.90
8463;DHT22;4268;52.506;13.462;2022-12-18T00:41:10;-4.50;99.90
8463;DHT22;4268;52.506;13.462;2022-12-18T00:43:37;-4.50;99.90
8463;DHT22;4268;52.506;13.462;2022-12-18T00:46:03;-4.60;99.90
8463;DHT22;4268;52.506;13.462;2022-12-18T00:48:29;-4.60;99.90
8463;DHT22;4268;52.506;13.462;2022-12-18T00:50:54;-4.70;99.90
8463;DHT22;4268;52.506;13.462;2022-12-18T00:53:20;-4.80;99.90
8463;DHT22;4268;52.506;13.462;2022-12-18T00:55:46;-4.80;99.90
8463;DHT22;4268;52.506;13.462;2022-12-18T00:58:13;-4.80;99.90
8463;DHT22;4268;52.506;13.462;2022-12-18T01:00:39;-4.80;99.90
8463;DHT22;4268;52.506;13.462;2022-12-18T01:03:05;-4.70;99.90
8463;DHT22;4268;52.506;13.462;2022-12-18T01:05:30;-4.80;99.90
8463;DHT22;4268;52.506;13.462;2022-12-18T01:07:57;-4.70;99.90
8463;DHT22;4268;52.506;13.462;2022-12-18T01:10:23;-4.70;99.90
8463;DHT22;4268;52.506;13.462;2022-12-18T01:12:49;-4.70;99.90
8463;DHT22;4268;52.506;13.462;2022-12-18T01:15:15;-4.60;99.90
8463;DHT22;4268;52.506;13.462;2022-12-18T01:17:41;-4.60;99.90
8463;DHT22;4268;52.506;13.462;2022-12-18T01:20:08;-4.60;99.90
8463;DHT22;4268;52.506;13.462;2022-12-18T01:22:34;-4.70;99.90
8463;DHT22;4268;52.506;13.462;2022-12-18T01:25:00;-4.90;99.90
8463;DHT22;4268;52.506;13.462;2022-12-18T01:27:25;-4.90;99.90
8463;DHT22;4268;52.506;13.462;2022-12-18T01:29:51;-4.90;99.90
8463;DHT22;4268;52.506;13.462;2022-12-18T01:32:16;-4.90;99.90
8463;DHT22;4268;52.506;13.462;2022-12-18T01:34:42;-5.00;99.90
8463;DHT22;4268;52.506;13.462;2022-12-18T01:37:08;-5.00;99.90
8463;DHT22;4268;52.506;13.462;2022-12-18T01:39:34;-4.90;99.90
8463;DHT22;4268;52.506;13.462;2022-12-18T01:42:02;-4.90;99.90
8463;DHT22;4268;52.506;13.462;2022-12-18T01:47:43;-4.90;99.90
8463;DHT22;4268;52.506;13.462;2022-12-18T01:53:17;-5.00;99.90
8463;DHT22;4268;52.506;13.462;2022-12-18T01:55:50;-5.00;99.90
8463;DHT22;4268;52.506;13.462;2022-12-18T01:58:18;-5.00;99.90
8463;DHT22;4268;52.506;13.462;2022-12-18T02:00:44;-5.00;99.90
8463;DHT22;4268;52.506;13.462;2022-12-18T02:03:10;-5.00;99.90
8463;DHT22;4268;52.506;13.462;2022-12-18T02:06:09;-5.00;99.90
8463;DHT22;4268;52.506;13.462;2022-12-18T02:11:49;-5.00;99.90
8463;DHT22;4268;52.506;13.462;2022-12-18T02:14:45;-5.00;99.90
8463;DHT22;4268;52.506;13.462;2022-12-18T02:17:19;-5.00;99.90
8463;DHT22;4268;52.506;13.462;2022-12-18T02:20:20;-5.00;99.90
8463;DHT22;4268;52.506;13.462;2022-12-18T02:23:01;-5.10;99.90
8463;DHT22;4268;52.506;13.462;2022-12-18T02:26:02;-5.00;99.90
8463;DHT22;4268;52.506;13.462;2022-12-18T02:28:33;-5.00;99.90
8463;DHT22;4268;52.506;13.462;2022-12-18T02:31:01;-5.10;99.90
8463;DHT22;4268;52.506;13.462;2022-12-18T02:33:28;-5.10;99.90
8463;DHT22;4268;52.506;13.462;2022-12-18T02:35:55;-5.10;99.90
8463;DHT22;4268;52.506;13.462;2022-12-18T02:38:22;-5.10;99.90
8463;DHT22;4268;52.506;13.462;2022-12-18T02:40:48;-5.10;99.90
8463;DHT22;4268;52.506;13.462;2022-12-18T02:43:15;-5.00;99.90
8463;DHT22;4268;52.506;13.462;2022-12-18T02:45:53;-5.00;99.90
8463;DHT22;4268;52.506;13.462;2022-12-18T02:48:23;-5.10;99.90
8463;DHT22;4268;52.506;13.462;2022-12-18T02:51:00;-5.00;99.90
8463;DHT22;4268;52.506;13.462;2022-12-18T02:53:36;-5.00;99.90
8463;DHT22;4268;52.506;13.462;2022-12-18T02:56:29;-5.00;99.90
8463;DHT22;4268;52.506;13.462;2022-12-18T02:59:02;-5.10;99.90
8463;DHT22;4268;52.506;13.462;2022-12-18T03:06:49;-5.20;99.90
8463;DHT22;4268;52.506;13.462;2022-12-18T03:09:21;-5.20;99.90
8463;DHT22;4268;52.506;13.462;2022-12-18T03:11:58;-5.30;99.90
8463;DHT22;4268;52.506;13.462;2022-12-18T03:14:53;-5.20;99.90
8463;DHT22;4268;52.506;13.462;2022-12-18T03:17:23;-5.20;99.90
8463;DHT22;4268;52.506;13.462;2022-12-18T03:19:52;-5.10;99.90
8463;DHT22;4268;52.506;13.462;2022-12-18T03:22:19;-5.10;99.90
8463;DHT22;4268;52.506;13.462;2022-12-18T03:24:46;-5.20;99.90
8463;DHT22;4268;52.506;13.462;2022-12-18T03:27:17;-5.30;99.90
8463;DHT22;4268;52.506;13.462;2022-12-18T03:29:50;-5.30;99.90
8463;DHT22;4268;52.506;13.462;2022-12-18T03:32:30;-5.30;99.90
8463;DHT22;4268;52.506;13.462;2022-12-18T03:34:59;-5.30;99.90
8463;DHT22;4268;52.506;13.462;2022-12-18T03:37:30;-5.30;99.90
8463;DHT22;4268;52.506;13.462;2022-12-18T03:39:56;-5.30;99.90
8463;DHT22;4268;52.506;13.462;2022-12-18T03:42:37;-5.30;99.90
8463;DHT22;4268;52.506;13.462;2022-12-18T03:45:12;-5.30;99.90
8463;DHT22;4268;52.506;13.462;2022-12-18T03:48:00;-5.30;99.90
8463;DHT22;4268;52.506;13.462;2022-12-18T03:50:37;-5.30;99.90
8463;DHT22;4268;52.506;13.462;2022-12-18T03:55:57;-5.40;99.90
8463;DHT22;4268;52.506;13.462;2022-12-18T03:58:25;-5.30;99.90
8463;DHT22;4268;52.506;13.462;2022-12-18T04:00:53;-5.30;99.90
8463;DHT22;4268;52.506;13.462;2022-12-18T04:03:21;-5.40;99.90
8463;DHT22;4268;52.506;13.462;2022-12-18T04:05:50;-5.30;99.90
8463;DHT22;4268;52.506;13.462;2022-12-18T04:08:16;-5.30;99.90
8463;DHT22;4268;52.506;13.462;2022-12-18T04:10:42;-5.30;99.90
8463;DHT22;4268;52.506;13.462;2022-12-18T04:13:09;-5.30;99.90
8463;DHT22;4268;52.506;13.462;2022-12-18T04:15:35;-5.30;99.90
8463;DHT22;4268;52.506;13.462;2022-12-18T04:18:01;-5.30;99.90
8463;DHT22;4268;52.506;13.462;2022-12-18T04:20:27;-5.30;99.90
8463;DHT22;4268;52.506;13.462;2022-12-18T04:22:52;-5.30;99.90
8463;DHT22;4268;52.506;13.462;2022-12-18T04:25:18;-5.20;99.90
8463;DHT22;4268;52.506;13.462;2022-12-18T04:27:43;-5.30;99.90
8463;DHT22;4268;52.506;13.462;2022-12-18T04:30:10;-5.30;99.90
8463;DHT22;4268;52.506;13.462;2022-12-18T04:32:35;-4.80;99.90
8463;DHT22;4268;52.506;13.462;2022-12-18T04:35:01;-5.40;99.90
8463;DHT22;4268;52.506;13.462;2022-12-18T04:37:27;-5.40;99.90
8463;DHT22;4268;52.506;13.462;2022-12-18T04:39:53;-5.40;99.90
8463;DHT22;4268;52.506;13.462;2022-12-18T04:42:18;-5.30;99.90
8463;DHT22;4268;52.506;13.462;2022-12-18T04:44:44;-5.30;99.90
8463;DHT22;4268;52.506;13.462;2022-12-18T04:47:10;-5.40;99.90
8463;DHT22;4268;52.506;13.462;2022-12-18T04:49:35;-5.40;99.90
8463;DHT22;4268;52.506;13.462;2022-12-18T04:52:01;-5.40;99.90
8463;DHT22;4268;52.506;13.462;2022-12-18T04:54:26;-5.60;99.90
8463;DHT22;4268;52.506;13.462;2022-12-18T04:56:52;-5.50;99.90
8463;DHT22;4268;52.506;13.462;2022-12-18T04:59:17;-5.50;99.90
8463;DHT22;4268;52.506;13.462;2022-12-18T05:01:43;-5.50;99.90
8463;DHT22;4268;52.506;13.462;2022-12-18T05:04:08;-5.60;99.90
8463;DHT22;4268;52.506;13.462;2022-12-18T05:06:33;-5.60;99.90
8463;DHT22;4268;52.506;13.462;2022-12-18T05:08:59;-5.60;99.90
8463;DHT22;4268;52.506;13.462;2022-12-18T05:11:24;-5.60;99.90
8463;DHT22;4268;52.506;13.462;2022-12-18T05:13:50;-5.60;99.90
8463;DHT22;4268;52.506;13.462;2022-12-18T05:16:15;-5.60;99.90
8463;DHT22;4268;52.506;13.462;2022-12-18T05:18:41;-5.50;99.90
8463;DHT22;4268;52.506;13.462;2022-12-18T05:21:07;-5.50;99.90
8463;DHT22;4268;52.506;13.462;2022-12-18T05:23:32;-5.60;99.90
8463;DHT22;4268;52.506;13.462;2022-12-18T05:26:04;-5.60;99.90
8463;DHT22;4268;52.506;13.462;2022-12-18T05:28:31;-5.60;99.90
8463;DHT22;4268;52.506;13.462;2022-12-18T05:30:59;-5.60;99.90
8463;DHT22;4268;52.506;13.462;2022-12-18T05:33:28;-5.50;99.90
8463;DHT22;4268;52.506;13.462;2022-12-18T05:35:55;-5.50;99.90
8463;DHT22;4268;52.506;13.462;2022-12-18T05:38:22;-5.50;99.90
8463;DHT22;4268;52.506;13.462;2022-12-18T05:40:49;-5.50;99.90
8463;DHT22;4268;52.506;13.462;2022-12-18T05:43:15;-4.90;99.90
8463;DHT22;4268;52.506;13.462;2022-12-18T05:45:41;-5.80;99.90
8463;DHT22;4268;52.506;13.462;2022-12-18T05:48:07;-5.50;99.90
8463;DHT22;4268;52.506;13.462;2022-12-18T05:50:35;-5.30;99.90
8463;DHT22;4268;52.506;13.462;2022-12-18T05:53:01;-5.30;99.90
8463;DHT22;4268;52.506;13.462;2022-12-18T05:55:27;-5.20;99.90
8463;DHT22;4268;52.506;13.462;2022-12-18T05:57:52;-5.20;99.90
8463;DHT22;4268;52.506;13.462;2022-12-18T06:00:18;-5.20;99.90
8463;DHT22;4268;52.506;13.462;2022-12-18T06:02:47;-5.30;99.90
8463;DHT22;4268;52.506;13.462;2022-12-18T06:05:12;-5.20;99.90
8463;DHT22;4268;52.506;13.462;2022-12-18T06:07:38;-5.20;99.90
8463;DHT22;4268;52.506;13.462;2022-12-18T06:10:04;-5.20;99.90
8463;DHT22;4268;52.506;13.462;2022-12-18T06:12:29;-5.20;99.90
8463;DHT22;4268;52.506;13.462;2022-12-18T06:14:55;-5.20;99.90
8463;DHT22;4268;52.506;13.462;2022-12-18T06:17:20;-5.20;99.90
8463;DHT22;4268;52.506;13.462;2022-12-18T06:19:46;-5.20;99.90
8463;DHT22;4268;52.506;13.462;2022-12-18T06:22:11;-5.30;99.90
8463;DHT22;4268;52.506;13.462;2022-12-18T06:24:37;-5.30;99.90
8463;DHT22;4268;52.506;13.462;2022-12-18T06:27:02;-5.30;99.90
8463;DHT22;4268;52.506;13.462;2022-12-18T06:29:27;-5.30;99.90
8463;DHT22;4268;52.506;13.462;2022-12-18T06:31:53;-5.30;99.90
8463;DHT22;4268;52.506;13.462;2022-12-18T06:34:18;-5.30;99.90
8463;DHT22;4268;52.506;13.462;2022-12-18T06:36:44;-5.30;99.90
8463;DHT22;4268;52.506;13.462;2022-12-18T06:39:09;-5.20;99.90
8463;DHT22;4268;52.506;13.462;2022-12-18T06:41:35;-5.20;99.90
8463;DHT22;4268;52.506;13.462;2022-12-18T06:44:00;-5.20;99.90
8463;DHT22;4268;52.506;13.462;2022-12-18T06:46:27;-5.20;99.90
8463;DHT22;4268;52.506;13.462;2022-12-18T06:48:52;-5.20;99.90
8463;DHT22;4268;52.506;13.462;2022-12-18T06:51:20;-5.10;99.90
8463;DHT22;4268;52.506;13.462;2022-12-18T06:53:46;-5.20;99.90
8463;DHT22;4268;52.506;13.462;2022-12-18T06:56:12;-5.20;99.90
8463;DHT22;4268;52.506;13.462;2022-12-18T06:58:38;-5.20;99.90
8463;DHT22;4268;52.506;13.462;2022-12-18T07:01:06;-5.20;99.90
8463;DHT22;4268;52.506;13.462;2022-12-18T07:03:32;-5.20;99.90
8463;DHT22;4268;52.506;13.462;2022-12-18T07:05:57;-5.20;99.90
8463;DHT22;4268;52.506;13.462;2022-12-18T07:08:23;-5.20;99.90
8463;DHT22;4268;52.506;13.462;2022-12-18T07:10:48;-5.10;99.90
8463;DHT22;4268;52.506;13.462;2022-12-18T07:13:17;-5.10;99.90
8463;DHT22;4268;52.506;13.462;2022-12-18T07:15:43;-5.20;99.90
8463;DHT22;4268;52.506;13.462;2022-12-18T07:18:09;-5.30;99.90
8463;DHT22;4268;52.506;13.462;2022-12-18T07:20:34;-5.20;99.90
8463;DHT22;4268;52.506;13.462;2022-12-18T07:23:02;-5.20;99.90
8463;DHT22;4268;52.506;13.462;2022-12-18T07:25:28;-5.10;99.90
8463;DHT22;4268;52.506;13.462;2022-12-18T07:27:54;-5.10;99.90
8463;DHT22;4268;52.506;13.462;2022-12-18T07:30:19;-5.10;99.90
8463;DHT22;4268;52.506;13.462;2022-12-18T07:32:45;-5.10;99.90
8463;DHT22;4268;52.506;13.462;2022-12-18T07:35:10;-5.10;99.90
8463;DHT22;4268;52.506;13.462;2022-12-18T07:37:36;-5.10;99.90
8463;DHT22;4268;52.506;13.462;2022-12-18T07:40:01;-5.10;99.90
8463;DHT22;4268;52.506;13.462;2022-12-18T07:42:27;-5.10;99.90
8463;DHT22;4268;52.506;13.462;2022-12-18T07:44:56;-5.10;99.90
8463;DHT22;4268;52.506;13.462;2022-12-18T07:47:21;-5.10;99.90
8463;DHT22;4268;52.506;13.462;2022-12-18T07:49:47;-5.00;99.90
8463;DHT22;4268;52.506;13.462;2022-12-18T07:52:12;-5.00;99.90
8463;DHT22;4268;52.506;13.462;2022-12-18T07:54:38;-5.00;99.90
8463;DHT22;4268;52.506;13.462;2022-12-18T07:57:04;-5.00;99.90
8463;DHT22;4268;52.506;13.462;2022-12-18T07:59:29;-4.90;99.90
8463;DHT22;4268;52.506;13.462;2022-12-18T08:01:55;-4.40;99.90
8463;DHT22;4268;52.506;13.462;2022-12-18T08:04:20;-4.90;99.90
8463;DHT22;4268;52.506;13.462;2022-12-18T08:06:46;-4.90;99.90
8463;DHT22;4268;52.506;13.462;2022-12-18T08:09:11;-4.90;99.90
8463;DHT22;4268;52.506;13.462;2022-12-18T08:11:37;-4.90;99.90
8463;DHT22;4268;52.506;13.462;2022-12-18T08:14:02;-5.00;99.90
8463;DHT22;4268;52.506;13.462;2022-12-18T08:16:28;-4.90;99.90
8463;DHT22;4268;52.506;13.462;2022-12-18T08:18:54;-4.90;99.90
8463;DHT22;4268;52.506;13.462;2022-12-18T08:21:24;-4.90;99.90
8463;DHT22;4268;52.506;13.462;2022-12-18T08:23:52;-4.90;99.90
8463;DHT22;4268;52.506;13.462;2022-12-18T08:26:19;-4.90;99.90
8463;DHT22;4268;52.506;13.462;2022-12-18T08:28:45;-4.90;99.90
8463;DHT22;4268;52.506;13.462;2022-12-18T08:31:10;-4.90;99.90
8463;DHT22;4268;52.506;13.462;2022-12-18T08:33:37;-4.90;99.90
8463;DHT22;4268;52.506;13.462;2022-12-18T08:36:04;-4.90;99.90
8463;DHT22;4268;52.506;13.462;2022-12-18T08:38:30;-4.90;99.90
8463;DHT22;4268;52.506;13.462;2022-12-18T08:41:00;-4.80;99.90
8463;DHT22;4268;52.506;13.462;2022-12-18T08:43:26;-4.80;99.90
8463;DHT22;4268;52.506;13.462;2022-12-18T08:46:10;-4.80;99.90
8463;DHT22;4268;52.506;13.462;2022-12-18T08:48:35;-4.80;99.90
8463;DHT22;4268;52.506;13.462;2022-12-18T08:51:01;-4.80;99.90
8463;DHT22;4268;52.506;13.462;2022-12-18T08:53:27;-4.80;99.90
8463;DHT22;4268;52.506;13.462;2022-12-18T08:55:53;-4.70;99.90
8463;DHT22;4268;52.506;13.462;2022-12-18T08:58:19;-4.70;99.90
8463;DHT22;4268;52.506;13.462;2022-12-18T09:00:44;-4.60;99.90
8463;DHT22;4268;52.506;13.462;2022-12-18T09:03:14;-4.60;99.90
8463;DHT22;4268;52.506;13.462;2022-12-18T09:05:40;-4.50;99.90
8463;DHT22;4268;52.506;13.462;2022-12-18T09:08:06;-4.50;99.90
8463;DHT22;4268;52.506;13.462;2022-12-18T09:10:32;-4.40;99.90
8463;DHT22;4268;52.506;13.462;2022-12-18T09:12:57;-4.40;99.90
8463;DHT22;4268;52.506;13.462;2022-12-18T09:15:23;-4.30;99.90
8463;DHT22;4268;52.506;13.462;2022-12-18T09:17:48;-4.30;99.90
8463;DHT22;4268;52.506;13.462;2022-12-18T09:20:15;-4.30;99.90
8463;DHT22;4268;52.506;13.462;2022-12-18T09:22:42;-4.20;99.90
8463;DHT22;4268;52.506;13.462;2022-12-18T09:25:07;-4.20;99.90
8463;DHT22;4268;52.506;13.462;2022-12-18T09:27:33;-4.10;99.90
8463;DHT22;4268;52.506;13.462;2022-12-18T09:29:59;-4.10;99.90
8463;DHT22;4268;52.506;13.462;2022-12-18T09:32:25;-4.10;99.90
8463;DHT22;4268;52.506;13.462;2022-12-18T09:34:50;-4.10;99.90
8463;DHT22;4268;52.506;13.462;2022-12-18T09:37:16;-4.00;99.90
8463;DHT22;4268;52.506;13.462;2022-12-18T09:39:41;-4.00;99.90
8463;DHT22;4268;52.506;13.462;2022-12-18T09:42:16;-3.90;99.90
8463;DHT22;4268;52.506;13.462;2022-12-18T09:44:45;-3.90;99.90
8463;DHT22;4268;52.506;13.462;2022-12-18T09:47:28;-3.90;99.90
8463;DHT22;4268;52.506;13.462;2022-12-18T09:50:13;-3.80;99.90
8463;DHT22;4268;52.506;13.462;2022-12-18T09:52:45;-3.90;99.90
8463;DHT22;4268;52.506;13.462;2022-12-18T09:55:27;-3.80;99.90
8463;DHT22;4268;52.506;13.462;2022-12-18T09:58:02;-3.80;99.90
8463;DHT22;4268;52.506;13.462;2022-12-18T10:00:28;-3.80;99.90
8463;DHT22;4268;52.506;13.462;2022-12-18T10:03:02;-3.80;99.90
8463;DHT22;4268;52.506;13.462;2022-12-18T10:05:49;-3.70;99.90
8463;DHT22;4268;52.506;13.462;2022-12-18T10:11:12;-3.70;99.90
8463;DHT22;4268;52.506;13.462;2022-12-18T10:16:27;-3.60;99.90
8463;DHT22;4268;52.506;13.462;2022-12-18T10:19:18;-3.50;99.90
8463;DHT22;4268;52.506;13.462;2022-12-18T10:24:24;-3.40;99.90
8463;DHT22;4268;52.506;13.462;2022-12-18T10:26:56;-3.40;99.90
8463;DHT22;4268;52.506;13.462;2022-12-18T10:29:25;-3.30;99.90
8463;DHT22;4268;52.506;13.462;2022-12-18T10:31:50;-3.30;99.90
8463;DHT22;4268;52.506;13.462;2022-12-18T10:34:16;-3.20;99.90
8463;DHT22;4268;52.506;13.462;2022-12-18T10:36:42;-3.20;99.90
8463;DHT22;4268;52.506;13.462;2022-12-18T10:39:16;-3.10;99.90
8463;DHT22;4268;52.506;13.462;2022-12-18T10:41:41;-3.10;99.90
8463;DHT22;4268;52.506;13.462;2022-12-18T10:44:11;-3.20;99.90
8463;DHT22;4268;52.506;13.462;2022-12-18T10:46:38;-3.10;99.90
8463;DHT22;4268;52.506;13.462;2022-12-18T10:49:04;-3.10;99.90
8463;DHT22;4268;52.506;13.462;2022-12-18T10:51:32;-3.10;99.90
8463;DHT22;4268;52.506;13.462;2022-12-18T10:54:13;-3.10;99.90
8463;DHT22;4268;52.506;13.462;2022-12-18T10:56:40;-3.10;99.90
8463;DHT22;4268;52.506;13.462;2022-12-18T10:59:11;-3.10;99.90
8463;DHT22;4268;52.506;13.462;2022-12-18T11:01:58;-3.10;99.90
8463;DHT22;4268;52.506;13.462;2022-12-18T11:04:28;-3.00;99.90
8463;DHT22;4268;52.506;13.462;2022-12-18T11:07:03;-3.10;99.90
8463;DHT22;4268;52.506;13.462;2022-12-18T11:09:31;-3.10;99.90
8463;DHT22;4268;52.506;13.462;2022-12-18T11:12:03;-3.10;99.90
8463;DHT22;4268;52.506;13.462;2022-12-18T11:14:32;-3.10;99.90
8463;DHT22;4268;52.506;13.462;2022-12-18T11:16:59;-3.10;99.90
8463;DHT22;4268;52.506;13.462;2022-12-18T11:21:56;-3.00;99.90
8463;DHT22;4268;52.506;13.462;2022-12-18T11:24:33;-3.00;99.90
8463;DHT22;4268;52.506;13.462;2022-12-18T11:27:05;-3.00;99.90
8463;DHT22;4268;52.506;13.462;2022-12-18T11:29:36;-3.00;99.90
8463;DHT22;4268;52.506;13.462;2022-12-18T11:34:43;-3.00;99.90
8463;DHT22;4268;52.506;13.462;2022-12-18T11:37:11;-2.90;99.90
8463;DHT22;4268;52.506;13.462;2022-12-18T11:39:42;-2.90;99.90
8463;DHT22;4268;52.506;13.462;2022-12-18T11:42:17;-3.00;99.90
8463;DHT22;4268;52.506;13.462;2022-12-18T11:44:50;-3.00;99.90
8463;DHT22;4268;52.506;13.462;2022-12-18T11:47:49;-3.20;99.90
8463;DHT22;4268;52.506;13.462;2022-12-18T11:53:13;-3.30;99.90
8463;DHT22;4268;52.506;13.462;2022-12-18T11:56:02;-3.30;99.90
8463;DHT22;4268;52.506;13.462;2022-12-18T11:58:58;-3.30;99.90
8463;DHT22;4268;52.506;13.462;2022-12-18T12:01:50;-3.30;99.90
8463;DHT22;4268;52.506;13.462;2022-12-18T12:10:04;-3.30;99.90
8463;DHT22;4268;52.506;13.462;2022-12-18T12:12:50;-3.30;99.90
8463;DHT22;4268;52.506;13.462;2022-12-18T12:15:42;-3.30;99.90
8463;DHT22;4268;52.506;13.462;2022-12-18T12:18:52;-3.20;99.90
8463;DHT22;4268;52.506;13.462;2022-12-18T12:27:30;-3.20;99.90
8463;DHT22;4268;52.506;13.462;2022-12-18T12:32:55;-3.10;99.90
8463;DHT22;4268;52.506;13.462;2022-12-18T12:35:29;-3.10;99.90
8463;DHT22;4268;52.506;13.462;2022-12-18T12:38:05;-3.10;99.90
8463;DHT22;4268;52.506;13.462;2022-12-18T12:40:35;-3.10;99.90
8463;DHT22;4268;52.506;13.462;2022-12-18T12:43:08;-3.10;99.90
8463;DHT22;4268;52.506;13.462;2022-12-18T12:45:59;-3.10;99.90
8463;DHT22;4268;52.506;13.462;2022-12-18T12:51:01;-3.10;99.90
8463;DHT22;4268;52.506;13.462;2022-12-18T12:53:36;-3.00;99.90
8463;DHT22;4268;52.506;13.462;2022-12-18T12:56:03;-3.00;99.90
8463;DHT22;4268;52.506;13.462;2022-12-18T12:58:41;-3.00;99.90
8463;DHT22;4268;52.506;13.462;2022-12-18T13:01:33;-3.00;99.90
8463;DHT22;4268;52.506;13.462;2022-12-18T13:04:23;-2.90;99.90
8463;DHT22;4268;52.506;13.462;2022-12-18T13:07:05;-2.90;99.90
8463;DHT22;4268;52.506;13.462;2022-12-18T13:13:02;-2.90;99.90
8463;DHT22;4268;52.506;13.462;2022-12-18T13:15:43;-3.00;99.90
8463;DHT22;4268;52.506;13.462;2022-12-18T13:20:46;-2.90;99.90
8463;DHT22;4268;52.506;13.462;2022-12-18T13:25:54;-2.90;99.90
8463;DHT22;4268;52.506;13.462;2022-12-18T13:28:50;-2.90;99.90
8463;DHT22;4268;52.506;13.462;2022-12-18T13:34:21;-2.90;99.90
8463;DHT22;4268;52.506;13.462;2022-12-18T13:36:47;-2.90;99.90
8463;DHT22;4268;52.506;13.462;2022-12-18T13:39:22;-2.90;99.90
8463;DHT22;4268;52.506;13.462;2022-12-18T13:44:58;-2.90;99.90
8463;DHT22;4268;52.506;13.462;2022-12-18T13:47:36;-2.90;99.90
8463;DHT22;4268;52.506;13.462;2022-12-18T13:50:23;-3.00;99.90
8463;DHT22;4268;52.506;13.462;2022-12-18T13:52:51;-3.00;99.90
8463;DHT22;4268;52.506;13.462;2022-12-18T13:55:19;-2.90;99.90
8463;DHT22;4268;52.506;13.462;2022-12-18T13:57:45;-3.00;99.90
8463;DHT22;4268;52.506;13.462;2022-12-18T14:00:26;-3.00;99.90
8463;DHT22;4268;52.506;13.462;2022-12-18T14:02:54;-3.00;99.90
8463;DHT22;4268;52.506;13.462;2022-12-18T14:05:30;-3.00;99.90
8463;DHT22;4268;52.506;13.462;2022-12-18T14:08:01;-2.90;99.90
8463;DHT22;4268;52.506;13.462;2022-12-18T14:10:31;-2.90;99.90
8463;DHT22;4268;52.506;13.462;2022-12-18T14:13:02;-3.00;99.90
8463;DHT22;4268;52.506;13.462;2022-12-18T14:15:35;-3.00;99.90
8463;DHT22;4268;52.506;13.462;2022-12-18T14:18:24;-3.00;99.90
8463;DHT22;4268;52.506;13.462;2022-12-18T14:20:53;-3.00;99.90
8463;DHT22;4268;52.506;13.462;2022-12-18T14:23:34;-3.00;99.90
8463;DHT22;4268;52.506;13.462;2022-12-18T14:26:22;-3.10;99.90
8463;DHT22;4268;52.506;13.462;2022-12-18T14:28:48;-3.10;99.90
8463;DHT22;4268;52.506;13.462;2022-12-18T14:31:28;-3.10;99.90
8463;DHT22;4268;52.506;13.462;2022-12-18T14:33:54;-3.00;99.90
8463;DHT22;4268;52.506;13.462;2022-12-18T14:36:25;-3.10;99.90
8463;DHT22;4268;52.506;13.462;2022-12-18T14:38:56;-3.10;99.90
8463;DHT22;4268;52.506;13.462;2022-12-18T14:41:23;-3.10;99.90
8463;DHT22;4268;52.506;13.462;2022-12-18T14:43:51;-3.90;99.90
8463;DHT22;4268;52.506;13.462;2022-12-18T14:46:34;-3.30;99.90
8463;DHT22;4268;52.506;13.462;2022-12-18T14:49:14;-3.40;99.90
8463;DHT22;4268;52.506;13.462;2022-12-18T14:51:54;-3.40;99.90
8463;DHT22;4268;52.506;13.462;2022-12-18T14:54:21;-3.40;99.90
8463;DHT22;4268;52.506;13.462;2022-12-18T14:56:49;-3.40;99.90
8463;DHT22;4268;52.506;13.462;2022-12-18T14:59:20;-3.40;99.90
8463;DHT22;4268;52.506;13.462;2022-12-18T15:04:39;-3.40;99.90
8463;DHT22;4268;52.506;13.462;2022-12-18T15:07:14;-3.40;99.90
8463;DHT22;4268;52.506;13.462;2022-12-18T15:10:25;-3.40;99.90
8463;DHT22;4268;52.506;13.462;2022-12-18T15:12:36;-3.40;99.90
8463;DHT22;4268;52.506;13.462;2022-12-18T15:15:04;-3.40;99.90
8463;DHT22;4268;52.506;13.462;2022-12-18T15:17:30;-3.40;99.90
8463;DHT22;4268;52.506;13.462;2022-12-18T15:20:03;-3.30;99.90
8463;DHT22;4268;52.506;13.462;2022-12-18T15:22:35;-3.30;99.90
8463;DHT22;4268;52.506;13.462;2022-12-18T15:25:02;-3.30;99.90
8463;DHT22;4268;52.506;13.462;2022-12-18T15:32:39;-3.30;99.90
8463;DHT22;4268;52.506;13.462;2022-12-18T15:35:15;-3.20;99.90
8463;DHT22;4268;52.506;13.462;2022-12-18T15:37:41;-3.30;99.90
8463;DHT22;4268;52.506;13.462;2022-12-18T15:40:14;-3.30;99.90
8463;DHT22;4268;52.506;13.462;2022-12-18T15:42:39;-3.40;99.90
8463;DHT22;4268;52.506;13.462;2022-12-18T15:45:24;-3.40;99.90
8463;DHT22;4268;52.506;13.462;2022-12-18T15:47:49;-3.20;99.90
8463;DHT22;4268;52.506;13.462;2022-12-18T15:50:15;-3.50;99.90
8463;DHT22;4268;52.506;13.462;2022-12-18T15:52:45;-3.80;99.90
8463;DHT22;4268;52.506;13.462;2022-12-18T15:55:13;-3.50;99.90
8463;DHT22;4268;52.506;13.462;2022-12-18T15:57:58;-3.50;99.90
8463;DHT22;4268;52.506;13.462;2022-12-18T16:00:23;-3.50;99.90
8463;DHT22;4268;52.506;13.462;2022-12-18T16:02:49;-3.50;99.90
8463;DHT22;4268;52.506;13.462;2022-12-18T16:05:16;-3.50;99.90
8463;DHT22;4268;52.506;13.462;2022-12-18T16:07:42;-3.50;99.90
8463;DHT22;4268;52.506;13.462;2022-12-18T16:10:08;-3.50;99.90
8463;DHT22;4268;52.506;13.462;2022-12-18T16:12:34;-3.50;99.90
8463;DHT22;4268;52.506;13.462;2022-12-18T16:14:59;-3.50;99.90
8463;DHT22;4268;52.506;13.462;2022-12-18T16:17:25;-3.40;99.90
8463;DHT22;4268;52.506;13.462;2022-12-18T16:19:51;-3.50;99.90
8463;DHT22;4268;52.506;13.462;2022-12-18T16:22:22;-3.50;99.90
8463;DHT22;4268;52.506;13.462;2022-12-18T16:24:48;-3.50;99.90
8463;DHT22;4268;52.506;13.462;2022-12-18T16:27:14;-3.50;99.90
8463;DHT22;4268;52.506;13.462;2022-12-18T16:29:40;-3.40;99.90
8463;DHT22;4268;52.506;13.462;2022-12-18T16:32:05;-3.50;99.90
8463;DHT22;4268;52.506;13.462;2022-12-18T16:34:34;-3.50;99.90
8463;DHT22;4268;52.506;13.462;2022-12-18T16:37:04;-3.50;99.90
8463;DHT22;4268;52.506;13.462;2022-12-18T16:39:30;-3.50;99.90
8463;DHT22;4268;52.506;13.462;2022-12-18T16:41:56;-3.50;99.90
8463;DHT22;4268;52.506;13.462;2022-12-18T16:44:22;-3.50;99.90
8463;DHT22;4268;52.506;13.462;2022-12-18T16:46:47;-3.60;99.90
8463;DHT22;4268;52.506;13.462;2022-12-18T16:49:15;-3.90;99.90
8463;DHT22;4268;52.506;13.462;2022-12-18T16:51:41;-3.50;99.90
8463;DHT22;4268;52.506;13.462;2022-12-18T16:54:07;-3.50;99.90
8463;DHT22;4268;52.506;13.462;2022-12-18T16:56:32;-3.50;99.90
8463;DHT22;4268;52.506;13.462;2022-12-18T16:58:59;-3.50;99.90
8463;DHT22;4268;52.506;13.462;2022-12-18T17:01:26;-3.50;99.90
8463;DHT22;4268;52.506;13.462;2022-12-18T17:03:56;-2.80;99.90
8463;DHT22;4268;52.506;13.462;2022-12-18T17:06:23;-3.60;99.90
8463;DHT22;4268;52.506;13.462;2022-12-18T17:08:57;-3.60;99.90
8463;DHT22;4268;52.506;13.462;2022-12-18T17:11:28;-3.60;99.90
8463;DHT22;4268;52.506;13.462;2022-12-18T17:13:54;-3.60;99.90
8463;DHT22;4268;52.506;13.462;2022-12-18T17:16:20;-3.70;99.90